Time;durP1;ratioP1;P1;durP2;ratioP2;P2;SDS_P1;SDS_P2;PMS_P1;PMS_P2;Temp;Humidity;BMP_temperature;BMP_pressure;BME280_temperature;BME280_humidity;BME280_pressure;Samples;Min_cycle;Max_cycle;Signal;HPM_P1;HPM_P2
2022/02/07 00:02:07;;;;;;;0.43;0.43;;;6.00;99.90;;;;;;5085336;28;20281;-86
2022/02/07 00:04:36;;;;;;;0.70;0.70;;;5.90;99.90;;;;;;5099513;28;20259;-86
2022/02/07 00:07:04;;;;;;;0.60;0.60;;;5.90;99.90;;;;;;5072019;28;20215;-87
2022/02/07 00:09:30;;;;;;;0.83;0.77;;;5.90;99.90;;;;;;5091336;28;20188;-85
2022/02/07 00:11:55;;;;;;;0.87;0.67;;;5.80;99.90;;;;;;5078226;28;20194;-87
2022/02/07 00:14:21;;;;;;;1.03;0.77;;;5.80;99.90;;;;;;5082882;28;20218;-87
2022/02/07 00:16:47;;;;;;;1.47;0.53;;;5.80;99.90;;;;;;5089028;28;20218;-87
2022/02/07 00:19:19;;;;;;;0.37;0.37;;;5.80;99.90;;;;;;5085081;28;20255;-87
2022/02/07 00:21:46;;;;;;;0.50;0.50;;;5.80;99.90;;;;;;5083498;28;20186;-86
2022/02/07 00:24:12;;;;;;;0.80;0.43;;;5.70;99.90;;;;;;5089462;28;20591;-87
2022/02/07 00:26:38;;;;;;;0.70;0.70;;;5.60;99.90;;;;;;5083322;28;20220;-86
2022/02/07 00:29:03;;;;;;;0.80;0.80;;;5.70;99.90;;;;;;5053797;28;20203;-86
2022/02/07 00:31:29;;;;;;;1.70;0.80;;;5.60;99.90;;;;;;5083146;28;20194;-88
2022/02/07 00:33:54;;;;;;;0.53;0.53;;;5.50;99.90;;;;;;5070935;28;20684;-88
2022/02/07 00:36:20;;;;;;;0.70;0.70;;;5.50;99.90;;;;;;5083941;28;20350;-86
2022/02/07 00:38:50;;;;;;;1.27;0.90;;;5.40;99.90;;;;;;5089296;28;20191;-86
2022/02/07 00:41:18;;;;;;;2.57;0.80;;;5.30;99.90;;;;;;5082934;28;20194;-86
2022/02/07 00:43:46;;;;;;;0.73;0.60;;;5.30;99.90;;;;;;5083756;28;20328;-87
2022/02/07 00:46:14;;;;;;;1.10;0.87;;;5.20;99.90;;;;;;5082202;28;20319;-87
2022/02/07 00:48:40;;;;;;;0.97;0.97;;;5.20;99.90;;;;;;5079185;28;20634;-86
2022/02/07 00:51:07;;;;;;;0.70;0.70;;;5.20;99.90;;;;;;5082072;28;20191;-87
2022/02/07 00:53:33;;;;;;;0.80;0.80;;;5.20;99.90;;;;;;5089127;28;20203;-87
2022/02/07 00:56:01;;;;;;;0.93;0.80;;;5.20;99.90;;;;;;5081983;28;20215;-87
2022/02/07 00:58:27;;;;;;;1.10;0.53;;;5.20;99.90;;;;;;5084508;28;20234;-87
2022/02/07 01:00:52;;;;;;;1.17;0.70;;;5.20;99.90;;;;;;5089974;28;20721;-87
2022/02/07 01:03:20;;;;;;;0.70;0.70;;;5.30;99.90;;;;;;5082149;28;20198;-87
2022/02/07 01:05:47;;;;;;;0.83;0.70;;;5.30;99.90;;;;;;5084005;28;20206;-87
2022/02/07 01:08:17;;;;;;;1.03;0.70;;;5.40;99.90;;;;;;5078745;28;20245;-87
2022/02/07 01:13:31;;;;;;;1.43;0.80;;;5.30;99.90;;;;;;5094439;28;20187;-87
2022/02/07 01:16:10;;;;;;;1.27;0.80;;;5.30;99.90;;;;;;5087337;28;20270;-87
2022/02/07 01:53:32;;;;;;;1.67;0.90;;;5.50;99.90;;;;;;5084622;28;20180;-88
2022/02/07 01:56:02;;;;;;;2.97;1.20;;;5.50;99.90;;;;;;5074502;28;20223;-88
2022/02/07 01:58:27;;;;;;;1.87;1.03;;;5.40;99.90;;;;;;5077914;28;20206;-88
2022/02/07 02:00:53;;;;;;;1.30;0.90;;;5.40;99.90;;;;;;5073300;28;20187;-88
2022/02/07 02:03:19;;;;;;;1.63;0.90;;;5.40;99.90;;;;;;5096520;28;20183;-87
2022/02/07 02:05:46;;;;;;;2.30;1.30;;;5.30;99.90;;;;;;5096667;28;20385;-88
2022/02/07 02:08:15;;;;;;;1.83;0.93;;;5.30;99.90;;;;;;5096626;28;20210;-88
2022/02/07 02:10:47;;;;;;;1.57;1.07;;;5.30;99.90;;;;;;5094487;28;20183;-88
2022/02/07 02:13:18;;;;;;;2.13;1.00;;;5.30;99.90;;;;;;5102538;28;20212;-88
2022/02/07 02:16:02;;;;;;;1.53;0.93;;;5.30;99.90;;;;;;5099014;28;20186;-87
2022/02/07 02:45:38;;;;;;;2.27;1.20;;;5.20;98.70;;;;;;5087713;28;20190;-87
2022/02/07 02:48:10;;;;;;;4.20;1.50;;;5.20;98.50;;;;;;5088379;28;20206;-88
2022/02/07 02:50:37;;;;;;;3.13;1.50;;;5.20;98.80;;;;;;5096616;28;20278;-87
2022/02/07 02:53:12;;;;;;;4.17;1.60;;;5.20;97.30;;;;;;5100172;28;20188;-88
2022/02/07 02:55:40;;;;;;;3.03;1.27;;;5.20;97.80;;;;;;5089220;28;20189;-88
2022/02/07 02:58:07;;;;;;;1.23;1.10;;;5.10;97.50;;;;;;5091222;28;20195;-88
2022/02/07 03:00:33;;;;;;;4.17;1.67;;;5.10;97.30;;;;;;5069472;28;20202;-88
2022/02/07 03:02:59;;;;;;;1.77;1.20;;;5.00;99.20;;;;;;5102907;28;20187;-88
2022/02/07 03:05:25;;;;;;;3.13;1.43;;;5.00;96.80;;;;;;5102058;28;20278;-88
2022/02/07 03:07:51;;;;;;;4.63;1.47;;;5.00;97.90;;;;;;5081731;28;20692;-87
2022/02/07 03:10:30;;;;;;;4.83;1.67;;;5.00;96.40;;;;;;5103794;28;20179;-88
2022/02/07 03:18:28;;;;;;;2.73;1.23;;;5.00;97.30;;;;;;5100981;28;20214;-87
2022/02/07 03:20:55;;;;;;;3.77;1.57;;;5.00;96.30;;;;;;5094386;28;20654;-87
2022/02/07 03:23:21;;;;;;;3.23;1.50;;;5.10;96.40;;;;;;5082198;28;20199;-88
2022/02/07 03:25:48;;;;;;;4.83;2.20;;;5.10;97.00;;;;;;5105002;28;20191;-88
2022/02/07 03:28:14;;;;;;;4.03;1.40;;;5.10;97.10;;;;;;5091928;28;20250;-89
2022/02/07 03:30:40;;;;;;;2.13;1.43;;;5.10;95.20;;;;;;5102958;28;20175;-89
2022/02/07 03:33:06;;;;;;;2.27;1.20;;;5.10;95.70;;;;;;5095883;28;20206;-88
2022/02/07 03:35:33;;;;;;;5.13;1.57;;;5.10;96.40;;;;;;5087402;28;20187;-87
2022/02/07 03:37:59;;;;;;;2.23;1.30;;;5.10;98.00;;;;;;5092455;28;20214;-89
2022/02/07 03:40:25;;;;;;;0.73;0.70;;;5.00;99.70;;;;;;5111443;28;20198;-88
2022/02/07 03:42:51;;;;;;;1.73;1.10;;;4.60;99.90;;;;;;5109080;28;20191;-88
2022/02/07 03:45:16;;;;;;;1.40;0.90;;;4.40;99.90;;;;;;5117119;28;20210;-88
2022/02/07 03:47:42;;;;;;;1.13;0.80;;;4.20;99.90;;;;;;5114850;28;20468;-88
2022/02/07 03:50:09;;;;;;;2.17;0.90;;;4.10;99.90;;;;;;5107458;28;20242;-88
2022/02/07 03:52:34;;;;;;;1.70;1.10;;;4.10;99.90;;;;;;5087623;28;20195;-88
2022/02/07 03:55:00;;;;;;;1.07;0.90;;;4.00;99.90;;;;;;5112769;28;20270;-89
2022/02/07 03:57:26;;;;;;;1.87;1.07;;;4.00;99.90;;;;;;5089054;28;20234;-88
2022/02/07 03:59:52;;;;;;;0.97;0.97;;;4.10;99.90;;;;;;5092000;28;20187;-88
2022/02/07 04:02:19;;;;;;;1.43;0.93;;;4.10;99.90;;;;;;5089213;28;20195;-88
2022/02/07 04:04:51;;;;;;;3.50;1.20;;;4.20;99.90;;;;;;5098023;28;20211;-88
2022/02/07 04:07:17;;;;;;;1.80;0.90;;;4.20;99.90;;;;;;5075841;28;20218;-88
2022/02/07 04:09:47;;;;;;;3.23;1.10;;;4.20;99.90;;;;;;5098349;28;20721;-88
2022/02/07 04:12:19;;;;;;;3.37;1.10;;;4.30;99.90;;;;;;5096312;28;20183;-88
2022/02/07 04:14:44;;;;;;;3.10;1.00;;;4.30;99.90;;;;;;5089973;28;20206;-87
2022/02/07 04:17:15;;;;;;;2.23;1.17;;;4.40;99.90;;;;;;5097449;28;20203;-88
2022/02/07 04:19:41;;;;;;;2.27;1.23;;;4.40;99.90;;;;;;5100413;28;20186;-88
2022/02/07 04:22:08;;;;;;;1.87;1.50;;;4.40;99.90;;;;;;5077357;28;20229;-88
2022/02/07 04:24:35;;;;;;;1.60;1.50;;;4.30;99.90;;;;;;5095749;28;20199;-88
2022/02/07 04:27:01;;;;;;;2.17;1.47;;;4.30;99.90;;;;;;5089024;28;20203;-88
2022/02/07 04:29:27;;;;;;;3.10;1.80;;;4.40;99.90;;;;;;5086909;28;20223;-88
2022/02/07 04:31:53;;;;;;;2.40;2.20;;;4.40;99.90;;;;;;5090338;28;20187;-88
2022/02/07 04:34:18;;;;;;;2.67;1.90;;;4.40;99.90;;;;;;5077907;28;20199;-88
2022/02/07 04:36:47;;;;;;;3.93;2.90;;;4.40;99.90;;;;;;5096083;28;20231;-88
2022/02/07 04:39:13;;;;;;;3.77;2.90;;;4.50;99.90;;;;;;5095652;28;20194;-88
2022/02/07 04:41:41;;;;;;;3.63;2.47;;;4.40;99.90;;;;;;5078925;28;20805;-88
2022/02/07 04:44:11;;;;;;;3.43;1.90;;;4.20;99.90;;;;;;5095791;28;20271;-88
2022/02/07 05:03:25;;;;;;;2.47;1.63;;;3.80;99.90;;;;;;5087626;28;20233;-88
2022/02/07 05:16:26;;;;;;;1.33;0.97;;;3.50;99.90;;;;;;5032895;28;20291;-87
2022/02/07 05:18:56;;;;;;;3.47;1.53;;;3.40;99.90;;;;;;5076568;28;20679;-88
2022/02/07 05:21:23;;;;;;;2.63;1.13;;;3.40;99.90;;;;;;5093889;28;20191;-89
2022/02/07 05:23:50;;;;;;;3.53;1.20;;;3.30;99.90;;;;;;5092542;28;20567;-87
2022/02/07 05:26:16;;;;;;;2.40;1.10;;;3.30;99.90;;;;;;5092560;28;20207;-87
2022/02/07 05:28:42;;;;;;;1.70;0.90;;;3.30;99.90;;;;;;5092657;28;20270;-87
2022/02/07 05:31:08;;;;;;;1.43;1.20;;;3.30;99.90;;;;;;5054683;28;20221;-87
2022/02/07 05:33:38;;;;;;;2.57;1.23;;;3.30;99.90;;;;;;5091404;28;20572;-88
2022/02/07 05:36:04;;;;;;;4.73;1.03;;;3.20;99.90;;;;;;5094398;28;20219;-88
2022/02/07 05:38:30;;;;;;;0.77;0.73;;;3.20;99.90;;;;;;5074858;28;20191;-88
2022/02/07 05:41:00;;;;;;;1.70;1.20;;;3.10;99.90;;;;;;5094175;28;20194;-88
2022/02/07 05:43:26;;;;;;;2.77;1.47;;;3.00;99.90;;;;;;5072659;28;20175;-89
2022/02/07 05:45:52;;;;;;;1.47;1.20;;;3.00;99.90;;;;;;5089610;28;20194;-89
2022/02/07 05:48:17;;;;;;;2.20;1.37;;;3.00;99.90;;;;;;5094665;28;20215;-88
2022/02/07 05:50:43;;;;;;;2.93;1.30;;;2.90;99.90;;;;;;5089060;28;20684;-88
2022/02/07 05:53:09;;;;;;;8.20;4.67;;;2.90;99.90;;;;;;5095528;28;20183;-88
2022/02/07 05:55:34;;;;;;;1.50;1.40;;;3.00;99.90;;;;;;5093418;28;20191;-88
2022/02/07 05:58:00;;;;;;;2.97;1.70;;;3.00;99.90;;;;;;5094439;28;20599;-89
2022/02/07 06:00:32;;;;;;;1.50;1.27;;;3.00;99.90;;;;;;5100941;28;20194;-88
2022/02/07 06:03:02;;;;;;;3.43;1.30;;;3.10;99.90;;;;;;5097826;28;20285;-88
2022/02/07 06:05:28;;;;;;;4.90;1.93;;;3.10;99.90;;;;;;5097158;28;20190;-88
2022/02/07 06:07:56;;;;;;;1.93;1.53;;;3.10;99.90;;;;;;5103083;28;20283;-88
2022/02/07 06:10:22;;;;;;;4.67;1.70;;;3.10;99.90;;;;;;5102157;28;20198;-88
2022/02/07 06:12:49;;;;;;;3.20;1.47;;;3.00;99.90;;;;;;5083208;28;20198;-89
2022/02/07 06:15:17;;;;;;;6.47;1.90;;;2.90;99.90;;;;;;5092684;28;20187;-88
2022/02/07 06:17:44;;;;;;;5.13;2.07;;;3.00;99.90;;;;;;5102403;28;20222;-89
2022/02/07 06:20:10;;;;;;;3.77;1.40;;;2.90;99.90;;;;;;5095548;28;20627;-88
2022/02/07 06:22:36;;;;;;;2.73;1.53;;;2.80;99.90;;;;;;5101002;28;20211;-88
2022/02/07 06:25:03;;;;;;;4.93;2.30;;;2.80;99.90;;;;;;5104308;28;20187;-89
2022/02/07 06:27:29;;;;;;;5.10;3.33;;;2.90;99.90;;;;;;5080254;28;20566;-88
2022/02/07 06:29:55;;;;;;;3.47;2.70;;;2.90;99.90;;;;;;5076372;28;20203;-88
2022/02/07 06:32:21;;;;;;;7.30;2.83;;;3.00;99.90;;;;;;5100278;28;20187;-88
2022/02/07 06:34:46;;;;;;;4.13;2.17;;;3.00;99.90;;;;;;5085109;28;20195;-88
2022/02/07 06:37:12;;;;;;;5.37;2.30;;;3.00;99.90;;;;;;5094230;28;20233;-88
2022/02/07 06:39:38;;;;;;;3.70;2.03;;;3.00;99.90;;;;;;5072782;28;20261;-88
2022/02/07 06:42:04;;;;;;;3.40;2.00;;;3.00;99.90;;;;;;5100049;28;20239;-88
2022/02/07 06:44:29;;;;;;;6.03;2.00;;;2.90;99.90;;;;;;5100012;28;20199;-88
2022/02/07 06:46:55;;;;;;;4.80;2.50;;;2.90;99.90;;;;;;5090098;28;20215;-88
2022/02/07 06:49:21;;;;;;;4.00;1.80;;;2.70;99.90;;;;;;5092099;28;20673;-88
2022/02/07 06:51:47;;;;;;;4.43;1.93;;;2.70;99.90;;;;;;5072690;28;20816;-88
2022/02/07 06:54:13;;;;;;;2.97;1.83;;;2.60;99.90;;;;;;5089757;28;20191;-88
2022/02/07 06:56:40;;;;;;;5.67;2.20;;;2.60;99.90;;;;;;5069620;28;20482;-88
2022/02/07 06:59:06;;;;;;;8.50;2.73;;;2.60;99.90;;;;;;5091640;28;20214;-88
2022/02/07 07:01:32;;;;;;;5.60;2.43;;;2.60;99.90;;;;;;5087781;28;20227;-88
2022/02/07 07:03:58;;;;;;;4.50;3.00;;;2.50;99.90;;;;;;5060225;28;20260;-88
2022/02/07 07:06:23;;;;;;;6.90;3.00;;;2.50;99.90;;;;;;5090228;28;20218;-88
2022/02/07 07:08:54;;;;;;;6.83;3.00;;;2.50;99.90;;;;;;5088823;28;20257;-88
2022/02/07 07:11:24;;;;;;;3.17;2.40;;;2.50;99.90;;;;;;5088701;28;20630;-88
2022/02/07 07:13:54;;;;;;;3.53;2.03;;;2.60;99.90;;;;;;5091388;28;20277;-88
2022/02/07 07:18:52;;;;;;;4.83;3.00;;;2.70;99.90;;;;;;5090936;28;20285;-88
2022/02/07 07:21:17;;;;;;;6.50;2.77;;;2.70;99.90;;;;;;5076583;28;20216;-88
2022/02/07 07:23:43;;;;;;;4.40;2.10;;;2.70;99.90;;;;;;5096426;28;20208;-88
2022/02/07 07:26:09;;;;;;;3.83;2.00;;;2.80;99.90;;;;;;5092403;28;20278;-88
2022/02/07 07:28:38;;;;;;;3.90;1.77;;;2.80;99.90;;;;;;5095623;28;20295;-88
2022/02/07 07:31:07;;;;;;;3.77;1.93;;;2.90;99.90;;;;;;5096126;28;20173;-88
2022/02/07 07:33:34;;;;;;;3.27;1.77;;;3.00;99.90;;;;;;5095654;28;20194;-87
2022/02/07 07:36:00;;;;;;;7.30;2.27;;;3.10;99.90;;;;;;5093871;28;20207;-87
2022/02/07 07:38:26;;;;;;;4.40;2.00;;;3.10;99.90;;;;;;5091788;28;20195;-87
2022/02/07 07:40:52;;;;;;;4.03;2.17;;;3.20;99.90;;;;;;5106308;28;20202;-88
2022/02/07 07:43:18;;;;;;;2.77;1.70;;;3.10;99.90;;;;;;5103721;28;20561;-87
2022/02/07 07:45:47;;;;;;;3.80;1.80;;;3.10;99.90;;;;;;5078725;28;20183;-87
2022/02/07 07:48:19;;;;;;;4.97;2.50;;;3.10;99.90;;;;;;5078751;28;20206;-89
2022/02/07 07:53:23;;;;;;;3.83;2.13;;;3.20;99.90;;;;;;5095122;28;20184;-88
2022/02/07 08:04:04;;;;;;;4.87;2.40;;;3.50;99.90;;;;;;5076606;28;20198;-87
2022/02/07 08:06:37;;;;;;;5.23;2.07;;;3.40;99.90;;;;;;5080288;28;20230;-89
2022/02/07 08:09:18;;;;;;;5.20;2.50;;;3.60;99.90;;;;;;5067093;28;20287;-89
2022/02/07 08:11:45;;;;;;;2.87;2.03;;;3.50;99.90;;;;;;5091321;28;20188;-89
2022/02/07 08:14:11;;;;;;;8.07;2.60;;;3.60;99.90;;;;;;5082290;28;20240;-89
2022/02/07 08:16:37;;;;;;;6.13;2.40;;;3.50;99.90;;;;;;5099925;28;20240;-89
2022/02/07 08:19:07;;;;;;;5.00;2.00;;;3.50;99.90;;;;;;5081014;28;20645;-88
2022/02/07 08:21:36;;;;;;;5.93;1.93;;;3.60;99.90;;;;;;5072122;28;20559;-87
2022/02/07 08:24:03;;;;;;;5.10;2.17;;;3.60;99.90;;;;;;5080240;28;20187;-89
2022/02/07 08:26:29;;;;;;;3.67;2.50;;;3.50;99.90;;;;;;5096640;28;20277;-87
2022/02/07 08:28:55;;;;;;;3.97;2.73;;;3.50;99.90;;;;;;5081326;28;20721;-86
2022/02/07 08:31:22;;;;;;;5.83;2.33;;;3.50;99.90;;;;;;5098604;28;20313;-87
2022/02/07 08:33:48;;;;;;;7.63;2.70;;;3.50;99.90;;;;;;5084167;28;20269;-89
2022/02/07 08:36:16;;;;;;;7.77;2.47;;;3.60;99.90;;;;;;5094871;28;20210;-88
2022/02/07 08:38:42;;;;;;;7.80;3.00;;;3.60;99.90;;;;;;5081631;28;20185;-87
2022/02/07 08:41:08;;;;;;;8.97;2.93;;;3.70;99.90;;;;;;5090765;28;20197;-89
2022/02/07 08:43:34;;;;;;;5.43;2.30;;;3.90;99.90;;;;;;5088375;28;20180;-88
2022/02/07 08:45:59;;;;;;;6.37;2.27;;;4.10;99.90;;;;;;5092417;28;20211;-89
2022/02/07 08:48:25;;;;;;;5.10;2.20;;;4.10;99.90;;;;;;5097226;28;20210;-89
2022/02/07 08:50:54;;;;;;;9.03;2.80;;;4.10;99.90;;;;;;5065612;28;20179;-90
2022/02/07 08:53:22;;;;;;;6.23;2.30;;;4.20;99.90;;;;;;5093032;28;20190;-92
2022/02/07 08:55:51;;;;;;;12.20;3.60;;;4.30;99.90;;;;;;5074551;28;20201;-87
2022/02/07 08:58:21;;;;;;;6.20;2.53;;;4.30;99.50;;;;;;5086494;28;20195;-88
2022/02/07 09:10:46;;;;;;;5.20;2.33;;;4.60;99.60;;;;;;5071169;28;20217;-88
2022/02/07 09:13:12;;;;;;;4.17;2.57;;;4.50;99.30;;;;;;5089016;28;20186;-88
2022/02/07 09:15:42;;;;;;;8.97;2.47;;;4.70;99.40;;;;;;5087338;28;20190;-88
2022/02/07 09:18:11;;;;;;;6.40;2.30;;;4.60;99.00;;;;;;5087294;28;20448;-88
2022/02/07 09:20:38;;;;;;;11.00;2.70;;;4.60;97.50;;;;;;5105003;28;20182;-88
2022/02/07 09:23:05;;;;;;;7.57;2.47;;;4.50;97.90;;;;;;5087957;28;20229;-89
2022/02/07 09:25:32;;;;;;;7.70;2.23;;;4.50;99.00;;;;;;5087856;28;20202;-89
2022/02/07 09:27:58;;;;;;;4.07;2.43;;;4.40;98.60;;;;;;5087896;28;20683;-88
2022/02/07 09:30:24;;;;;;;4.07;2.47;;;4.40;99.70;;;;;;5091223;28;20215;-89
2022/02/07 09:32:49;;;;;;;9.73;2.83;;;4.50;97.20;;;;;;5091085;28;20272;-89
2022/02/07 09:35:16;;;;;;;6.60;2.30;;;4.50;96.80;;;;;;5086751;28;20266;-89
2022/02/07 09:37:43;;;;;;;6.43;3.00;;;4.50;97.60;;;;;;5090168;28;20703;-89
2022/02/07 09:40:10;;;;;;;11.07;2.73;;;4.50;97.60;;;;;;5090723;28;20226;-89
2022/02/07 09:42:41;;;;;;;5.40;2.80;;;4.60;98.10;;;;;;5085011;28;20618;-89
2022/02/07 09:45:17;;;;;;;4.03;2.70;;;4.70;99.10;;;;;;5089589;28;20677;-88
2022/02/07 09:47:44;;;;;;;5.67;2.20;;;4.90;97.20;;;;;;5088441;28;20738;-88
2022/02/07 09:50:09;;;;;;;6.97;2.73;;;4.90;96.80;;;;;;5085493;28;20278;-88
2022/02/07 09:52:35;;;;;;;7.30;2.60;;;5.00;94.60;;;;;;5089951;28;20290;-87
2022/02/07 09:55:02;;;;;;;13.13;2.80;;;5.00;94.40;;;;;;5087443;28;20296;-88
2022/02/07 09:57:28;;;;;;;7.87;2.63;;;4.90;95.70;;;;;;5084669;28;20226;-88
2022/02/07 09:59:55;;;;;;;6.23;2.43;;;4.80;94.60;;;;;;5094595;28;20191;-87
2022/02/07 10:03:09;;;;;;;6.80;2.70;;;4.80;96.40;;;;;;5085244;28;20210;-88
2022/02/07 10:05:22;;;;;;;6.63;2.57;;;4.90;94.10;;;;;;5083132;28;20219;-88
2022/02/07 10:08:04;;;;;;;6.10;2.67;;;5.00;93.20;;;;;;5090112;28;20747;-88
2022/02/07 10:10:54;;;;;;;5.60;2.60;;;5.10;91.60;;;;;;5103471;28;20191;-89
2022/02/07 10:13:37;;;;;;;4.07;2.50;;;5.00;90.80;;;;;;5091921;28;20219;-89
2022/02/07 10:16:42;;;;;;;6.30;2.50;;;5.10;91.30;;;;;;5105265;28;20665;-88
2022/02/07 10:19:19;;;;;;;4.83;2.37;;;4.90;91.40;;;;;;5097313;28;20209;-90
2022/02/07 10:43:58;;;;;;;5.77;2.70;;;5.20;92.70;;;;;;5084565;28;20191;-89
2022/02/07 10:46:20;;;;;;;5.30;2.47;;;5.10;91.60;;;;;;5087059;28;20218;-90
2022/02/07 10:48:53;;;;;;;7.77;2.63;;;5.20;90.70;;;;;;5065682;28;20253;-88
2022/02/07 10:51:31;;;;;;;5.67;2.47;;;5.20;92.80;;;;;;5082793;28;20191;-88
2022/02/07 10:54:05;;;;;;;9.67;2.67;;;5.30;91.90;;;;;;5097250;28;20179;-88
2022/02/07 10:56:41;;;;;;;7.37;2.43;;;5.40;89.20;;;;;;5096049;28;20210;-87
2022/02/07 10:59:20;;;;;;;4.00;2.20;;;5.40;87.80;;;;;;5075690;28;20216;-88
2022/02/07 11:04:17;;;;;;;6.53;2.73;;;5.60;90.00;;;;;;5098961;28;20195;-87
2022/02/07 11:06:47;;;;;;;5.27;2.63;;;5.70;85.90;;;;;;5091639;28;20204;-88
2022/02/07 11:09:23;;;;;;;7.97;2.60;;;5.60;87.80;;;;;;5075619;28;20207;-88
2022/02/07 11:12:08;;;;;;;5.30;3.00;;;5.50;89.70;;;;;;5097649;28;20267;-88
2022/02/07 11:14:46;;;;;;;8.00;2.97;;;5.50;90.90;;;;;;5084732;28;20199;-88
2022/02/07 11:20:06;;;;;;;6.40;2.33;;;5.50;89.90;;;;;;5098647;28;20607;-88
2022/02/07 11:22:46;;;;;;;5.07;2.47;;;5.60;86.90;;;;;;5083824;28;20191;-88
2022/02/07 11:26:19;;;;;;;6.00;2.43;;;5.50;89.50;;;;;;5097621;28;20188;-88
2022/02/07 11:28:25;;;;;;;4.90;2.00;;;5.40;89.70;;;;;;5078113;28;20631;-88
2022/02/07 11:31:05;;;;;;;6.90;2.70;;;5.50;87.50;;;;;;5088398;28;20184;-88
2022/02/07 11:33:50;;;;;;;5.93;2.60;;;5.50;85.50;;;;;;5078656;28;20202;-88
2022/02/07 11:36:36;;;;;;;9.93;2.50;;;5.50;87.80;;;;;;5091554;28;20203;-88
2022/02/07 11:39:15;;;;;;;8.83;2.63;;;5.50;87.00;;;;;;5091514;28;20229;-88
2022/02/07 11:41:55;;;;;;;5.10;2.43;;;5.60;86.50;;;;;;5096953;28;20186;-88
2022/02/07 11:44:36;;;;;;;6.93;2.37;;;5.50;88.00;;;;;;5094731;28;20223;-88
2022/02/07 11:47:26;;;;;;;6.37;2.37;;;5.50;88.20;;;;;;5096764;28;20207;-88
2022/02/07 11:50:00;;;;;;;7.57;3.00;;;5.60;88.10;;;;;;5075380;28;20212;-87
2022/02/07 11:52:48;;;;;;;7.10;2.43;;;5.60;86.20;;;;;;5078749;28;20202;-88
2022/02/07 11:55:17;;;;;;;7.73;3.17;;;5.60;87.90;;;;;;5078062;28;20239;-88
2022/02/07 11:58:04;;;;;;;6.80;2.67;;;5.60;86.10;;;;;;5099043;28;20240;-88
2022/02/07 12:00:34;;;;;;;6.27;2.67;;;5.70;85.70;;;;;;5096956;28;20187;-88
2022/02/07 12:03:05;;;;;;;9.20;3.07;;;5.70;89.10;;;;;;5079054;28;20199;-88
2022/02/07 12:05:34;;;;;;;8.67;2.57;;;5.70;87.50;;;;;;5097305;28;20211;-88
2022/02/07 12:08:01;;;;;;;5.50;2.77;;;5.70;89.20;;;;;;5092794;28;20238;-87
2022/02/07 12:10:37;;;;;;;7.87;2.70;;;5.70;85.60;;;;;;5072557;28;20191;-87
2022/02/07 12:13:24;;;;;;;4.30;2.30;;;5.70;87.30;;;;;;5093993;28;20190;-87
2022/02/07 12:15:53;;;;;;;7.33;2.53;;;5.70;86.60;;;;;;5091455;28;20198;-88
2022/02/07 12:18:21;;;;;;;5.70;2.47;;;5.80;87.50;;;;;;5091443;28;20210;-88
2022/02/07 12:20:53;;;;;;;7.33;2.80;;;5.80;89.40;;;;;;5089990;28;20226;-88
2022/02/07 12:23:29;;;;;;;6.47;2.80;;;5.80;88.30;;;;;;5088396;28;20221;-87
2022/02/07 12:26:04;;;;;;;4.67;2.60;;;5.80;86.30;;;;;;5076446;28;20197;-87
2022/02/07 12:28:41;;;;;;;8.50;3.10;;;5.90;87.40;;;;;;5090546;28;20206;-87
2022/02/07 12:31:21;;;;;;;8.80;3.43;;;5.90;89.80;;;;;;5090061;28;20734;-88
2022/02/07 12:33:54;;;;;;;7.47;2.80;;;6.00;88.20;;;;;;5091190;28;20258;-87
2022/02/07 12:36:22;;;;;;;8.17;2.40;;;5.90;87.90;;;;;;5092759;28;20202;-87
2022/02/07 12:38:48;;;;;;;7.93;2.50;;;6.00;89.00;;;;;;5073470;28;20227;-87
2022/02/07 12:41:16;;;;;;;5.83;2.30;;;5.90;86.70;;;;;;5092777;28;20198;-87
2022/02/07 12:43:44;;;;;;;6.30;2.60;;;5.90;86.80;;;;;;5056918;28;20692;-88
2022/02/07 12:46:13;;;;;;;7.07;2.60;;;5.90;86.10;;;;;;5092786;28;20222;-88
2022/02/07 12:48:48;;;;;;;9.27;2.50;;;5.90;86.10;;;;;;5091166;28;20252;-88
2022/02/07 12:51:15;;;;;;;7.43;2.60;;;5.90;86.30;;;;;;5092194;28;20175;-88
2022/02/07 12:53:41;;;;;;;4.90;2.27;;;5.90;88.10;;;;;;5059193;28;20183;-88
2022/02/07 12:56:09;;;;;;;10.93;2.70;;;5.70;89.00;;;;;;5073339;28;20241;-88
2022/02/07 12:58:38;;;;;;;5.13;2.63;;;5.70;87.90;;;;;;5090049;28;20192;-88
2022/02/07 13:01:17;;;;;;;10.23;2.80;;;5.70;88.20;;;;;;5087989;28;20582;-89
2022/02/07 13:03:49;;;;;;;6.23;2.60;;;5.80;87.90;;;;;;5090498;28;20170;-87
2022/02/07 13:06:15;;;;;;;7.17;2.90;;;5.70;89.70;;;;;;5090255;28;20203;-87
2022/02/07 13:08:44;;;;;;;8.63;2.90;;;5.90;87.90;;;;;;5075688;28;20494;-87
2022/02/07 13:11:25;;;;;;;5.97;2.60;;;5.90;85.80;;;;;;5092127;28;20259;-90
2022/02/07 13:13:54;;;;;;;6.23;2.80;;;5.70;88.60;;;;;;5097126;28;20174;-89
2022/02/07 13:16:22;;;;;;;8.60;2.77;;;5.70;89.00;;;;;;5067021;28;20212;-90
2022/02/07 13:18:48;;;;;;;4.57;2.27;;;5.80;88.70;;;;;;5047004;28;20207;-90
2022/02/07 13:21:17;;;;;;;7.57;2.67;;;5.70;87.10;;;;;;5082979;28;20240;-90
2022/02/07 13:23:47;;;;;;;9.80;2.93;;;5.80;87.80;;;;;;5087139;28;20191;-90
2022/02/07 13:26:16;;;;;;;5.27;2.27;;;5.80;87.60;;;;;;5085039;28;20234;-90
2022/02/07 13:28:44;;;;;;;7.43;2.67;;;5.80;88.00;;;;;;5085368;28;20199;-89
2022/02/07 13:31:11;;;;;;;8.13;2.97;;;5.80;88.60;;;;;;5087955;28;20262;-90
2022/02/07 13:33:46;;;;;;;5.57;2.47;;;5.90;86.40;;;;;;5067036;28;20725;-90
2022/02/07 13:36:12;;;;;;;8.47;2.60;;;6.20;84.90;;;;;;5089035;28;20257;-90
2022/02/07 13:38:38;;;;;;;4.97;2.23;;;6.20;85.40;;;;;;5089341;28;20222;-89
2022/02/07 13:41:04;;;;;;;10.57;3.43;;;6.20;85.80;;;;;;5085870;28;20666;-90
2022/02/07 13:43:31;;;;;;;9.30;2.60;;;6.30;84.90;;;;;;5085394;28;20953;-90
2022/02/07 13:46:02;;;;;;;4.10;2.47;;;6.20;84.00;;;;;;5087076;28;20198;-90
2022/02/07 13:48:29;;;;;;;5.03;2.37;;;6.20;81.80;;;;;;5068777;28;20900;-90
2022/02/07 13:50:57;;;;;;;5.37;2.60;;;6.50;78.90;;;;;;5087759;28;20227;-90
2022/02/07 13:53:24;;;;;;;7.13;3.20;;;6.40;79.80;;;;;;5069785;28;20665;-89
2022/02/07 13:56:00;;;;;;;6.07;2.27;;;6.40;78.70;;;;;;5085980;28;20187;-89
2022/02/07 13:58:36;;;;;;;6.13;2.20;;;6.50;77.10;;;;;;5084502;28;21138;-89
2022/02/07 14:01:10;;;;;;;7.17;2.40;;;6.50;77.70;;;;;;5082337;28;20191;-90
2022/02/07 14:03:51;;;;;;;9.77;4.50;;;6.60;77.30;;;;;;5089740;28;20191;-90
2022/02/07 14:06:19;;;;;;;5.47;2.03;;;6.60;77.80;;;;;;5074762;28;20226;-90
2022/02/07 14:08:50;;;;;;;5.63;2.63;;;6.50;79.30;;;;;;5093756;28;20226;-88
2022/02/07 14:11:27;;;;;;;6.37;3.10;;;6.70;77.80;;;;;;5090671;28;20187;-89
2022/02/07 14:13:54;;;;;;;8.20;2.90;;;6.70;76.20;;;;;;5090318;28;20709;-90
2022/02/07 14:16:23;;;;;;;8.33;3.37;;;6.80;75.90;;;;;;5086743;28;20195;-90
2022/02/07 14:18:49;;;;;;;5.00;2.57;;;6.70;76.70;;;;;;5071567;28;20209;-90
2022/02/07 14:21:17;;;;;;;5.30;2.10;;;6.70;77.10;;;;;;5096941;28;20198;-89
2022/02/07 14:23:46;;;;;;;4.80;2.30;;;6.60;76.90;;;;;;5085343;28;20183;-88
2022/02/07 14:26:16;;;;;;;9.43;3.00;;;6.50;77.00;;;;;;5076236;28;20294;-89
2022/02/07 14:28:43;;;;;;;8.03;2.60;;;6.40;77.50;;;;;;5090797;28;20274;-89
2022/02/07 14:31:11;;;;;;;6.23;2.30;;;6.50;77.50;;;;;;5086058;28;20195;-89
2022/02/07 14:33:41;;;;;;;8.50;2.27;;;6.30;76.40;;;;;;5091961;28;20278;-89
2022/02/07 14:36:07;;;;;;;8.10;2.60;;;6.40;78.50;;;;;;5093601;28;20222;-89
2022/02/07 14:38:33;;;;;;;3.73;2.53;;;6.30;78.50;;;;;;5091958;28;20569;-89
2022/02/07 14:40:59;;;;;;;6.00;2.53;;;6.40;78.60;;;;;;5074970;28;20187;-89
2022/02/07 14:43:31;;;;;;;8.00;3.27;;;6.50;77.60;;;;;;5074259;28;20199;-89
2022/02/07 14:48:38;;;;;;;9.33;2.70;;;6.50;76.40;;;;;;5104823;28;20191;-89
2022/02/07 14:51:06;;;;;;;5.27;2.30;;;6.30;79.60;;;;;;5102849;28;20171;-89
2022/02/07 14:53:37;;;;;;;6.37;2.40;;;6.30;80.30;;;;;;5085241;28;20198;-90
2022/02/07 14:56:05;;;;;;;6.53;2.57;;;6.50;77.50;;;;;;5094195;28;20700;-90
2022/02/07 14:58:32;;;;;;;3.30;2.20;;;6.30;78.70;;;;;;5085134;28;20191;-89
2022/02/07 15:00:58;;;;;;;5.57;2.80;;;6.40;78.70;;;;;;5104618;28;20201;-90
2022/02/07 15:03:24;;;;;;;6.67;2.70;;;6.30;77.60;;;;;;5100069;28;20179;-89
2022/02/07 15:05:53;;;;;;;4.93;2.40;;;6.30;77.80;;;;;;5100933;28;20183;-89
2022/02/07 15:08:20;;;;;;;6.77;2.33;;;6.40;75.10;;;;;;5085824;28;20799;-90
2022/02/07 15:10:46;;;;;;;4.60;2.27;;;6.30;78.00;;;;;;5082778;28;20210;-91
2022/02/07 15:13:12;;;;;;;8.67;2.80;;;6.30;78.70;;;;;;5081067;28;20183;-89
2022/02/07 15:15:41;;;;;;;5.20;2.33;;;6.40;77.80;;;;;;5063748;28;20179;-89
2022/02/07 15:18:08;;;;;;;5.07;2.10;;;6.20;78.00;;;;;;5063453;28;20266;-91
2022/02/07 15:20:38;;;;;;;8.57;2.70;;;6.20;80.10;;;;;;5063754;28;20271;-92
2022/02/07 15:23:06;;;;;;;5.20;2.50;;;6.40;77.70;;;;;;5064839;28;20275;-89
2022/02/07 15:25:35;;;;;;;8.70;3.03;;;6.30;79.60;;;;;;5098573;28;20187;-91
2022/02/07 15:28:06;;;;;;;7.50;2.50;;;6.30;79.90;;;;;;5098448;28;20251;-91
2022/02/07 15:30:40;;;;;;;7.50;3.00;;;6.30;78.50;;;;;;5081069;28;20178;-89
2022/02/07 15:33:17;;;;;;;7.17;2.50;;;6.20;80.20;;;;;;5062121;28;20187;-89
2022/02/07 15:35:46;;;;;;;4.93;3.17;;;6.20;78.50;;;;;;5081380;28;20327;-90
2022/02/07 15:38:12;;;;;;;8.13;3.63;;;6.20;77.90;;;;;;5070043;28;20183;-91
2022/02/07 15:40:40;;;;;;;4.27;2.37;;;6.20;77.50;;;;;;5070396;28;20186;-90